createdAt,value
2018-08-14T00:01:20.448Z,95007.00
2018-08-14T00:03:50.772Z,95010.00
2018-08-14T00:06:21.027Z,95007.00
2018-08-14T00:08:51.662Z,95005.00
2018-08-14T00:11:21.956Z,95004.00
2018-08-14T00:13:52.170Z,95001.00
2018-08-14T00:16:22.453Z,95000.00
2018-08-14T00:18:53.256Z,95000.00
2018-08-14T00:21:23.885Z,94999.00
2018-08-14T00:23:54.159Z,95000.00
2018-08-14T00:26:24.469Z,95002.00
2018-08-14T00:28:54.741Z,95003.00
2018-08-14T00:31:24.933Z,95001.00
2018-08-14T00:33:55.551Z,95001.00
2018-08-14T00:36:25.828Z,95000.00
2018-08-14T00:38:56.131Z,95003.00
2018-08-14T00:41:26.388Z,94998.00
2018-08-14T00:43:56.745Z,94998.00
2018-08-14T00:46:27.101Z,94996.00
2018-08-14T00:48:58.705Z,94992.00
2018-08-14T00:51:29.443Z,94993.00
2018-08-14T00:53:59.680Z,94991.00
2018-08-14T00:56:30.162Z,94990.00
2018-08-14T00:59:00.840Z,94987.00
2018-08-14T01:01:31.246Z,94998.00
2018-08-14T01:04:01.544Z,94996.00
2018-08-14T01:06:32.039Z,94991.00
2018-08-14T01:09:02.975Z,94996.00
2018-08-14T01:11:33.213Z,95000.00
2018-08-14T01:14:03.484Z,94998.00
2018-08-14T01:16:33.845Z,94997.00
2018-08-14T01:19:04.445Z,94992.00
2018-08-14T01:21:34.723Z,94992.00
2018-08-14T01:24:05.710Z,94991.00
2018-08-14T01:26:36.132Z,94992.00
2018-08-14T01:29:06.277Z,94995.00
2018-08-14T01:31:36.471Z,94993.00
2018-08-14T01:34:07.332Z,94995.00
2018-08-14T01:36:37.588Z,94998.00
2018-08-14T01:39:12.104Z,95004.00
2018-08-14T01:41:42.406Z,95005.00
2018-08-14T01:44:12.711Z,95007.00
2018-08-14T01:46:42.950Z,95004.00
2018-08-14T01:49:13.191Z,95007.00
2018-08-14T01:51:43.462Z,95001.00
2018-08-14T01:54:13.741Z,95007.00
2018-08-14T01:56:44.009Z,95011.00
2018-08-14T01:59:14.212Z,95013.00
2018-08-14T02:01:44.429Z,95015.00
2018-08-14T02:04:14.631Z,95020.00
2018-08-14T02:06:44.884Z,95020.00
2018-08-14T02:09:15.203Z,95024.00
2018-08-14T02:11:45.534Z,95026.00
2018-08-14T02:14:15.813Z,95024.00
2018-08-14T02:16:46.064Z,95030.00
2018-08-14T02:19:16.466Z,95030.00
2018-08-14T02:21:47.089Z,95030.00
2018-08-14T02:24:17.270Z,95032.00
2018-08-14T02:26:47.539Z,95032.00
2018-08-14T02:29:17.868Z,95037.00
2018-08-14T02:31:48.192Z,95036.00
2018-08-14T02:34:19.676Z,95038.00
2018-08-14T02:36:52.143Z,95043.00
2018-08-14T02:39:24.279Z,95043.00
2018-08-14T02:41:56.119Z,95045.00
2018-08-14T02:44:26.413Z,95050.00
2018-08-14T02:46:59.205Z,95046.00
2018-08-14T02:49:29.524Z,95046.00
2018-08-14T02:52:01.417Z,95043.00
2018-08-14T02:54:33.291Z,95047.00
2018-08-14T02:57:03.672Z,95046.00
2018-08-14T02:59:34.461Z,95053.00
2018-08-14T03:02:05.542Z,95047.00
2018-08-14T03:04:35.841Z,95055.00
2018-08-14T03:07:06.024Z,95056.00
2018-08-14T03:09:36.330Z,95055.00
2018-08-14T03:12:06.430Z,95062.00
2018-08-14T03:14:36.729Z,95054.00
2018-08-14T03:17:06.971Z,95052.00
2018-08-14T03:19:37.220Z,95056.00
2018-08-14T03:22:07.585Z,95060.00
2018-08-14T03:24:37.792Z,95064.00
2018-08-14T03:27:08.051Z,95062.00
2018-08-14T03:29:38.420Z,95061.00
2018-08-14T03:32:09.803Z,95060.00
2018-08-14T03:34:41.800Z,95062.00
2018-08-14T03:37:12.426Z,95065.00
2018-08-14T03:39:42.746Z,95066.00
2018-08-14T03:42:12.972Z,95072.00
2018-08-14T03:44:43.228Z,95072.00
2018-08-14T03:47:13.368Z,95074.00
2018-08-14T03:49:43.661Z,95078.00
2018-08-14T03:52:14.022Z,95075.00
2018-08-14T03:54:44.389Z,95077.00
2018-08-14T03:57:15.247Z,95091.00
2018-08-14T03:59:45.476Z,95090.00
2018-08-14T04:02:15.691Z,95084.00
2018-08-14T04:04:46.155Z,95082.00
2018-08-14T04:07:16.284Z,95087.00
2018-08-14T04:09:46.321Z,95085.00
2018-08-14T04:12:16.614Z,95090.00
2018-08-14T04:14:46.994Z,95085.00
2018-08-14T04:17:17.300Z,95089.00
2018-08-14T04:19:47.545Z,95092.00
2018-08-14T04:22:17.847Z,95089.00
2018-08-14T04:24:48.174Z,95097.00
2018-08-14T04:27:18.791Z,95100.00
2018-08-14T04:29:49.248Z,95103.00
2018-08-14T04:32:22.791Z,95104.00
2018-08-14T04:34:53.308Z,95110.00
2018-08-14T04:37:23.568Z,95112.00
2018-08-14T04:39:53.964Z,95122.00
2018-08-14T04:42:24.215Z,95129.00
2018-08-14T04:44:54.950Z,95130.00
2018-08-14T04:47:25.206Z,95128.00
2018-08-14T04:49:55.711Z,95135.00
2018-08-14T04:52:26.404Z,95138.00
2018-08-14T04:54:56.653Z,95145.00
2018-08-14T04:57:26.916Z,95150.00
2018-08-14T04:59:57.259Z,95158.00
2018-08-14T05:02:27.594Z,95160.00
2018-08-14T05:04:57.799Z,95160.00
2018-08-14T05:07:27.922Z,95159.00
2018-08-14T05:09:58.509Z,95164.00
2018-08-14T05:12:28.763Z,95164.00
2018-08-14T05:14:59.200Z,95162.00
2018-08-14T05:17:29.459Z,95155.00
2018-08-14T05:20:00.142Z,95158.00
2018-08-14T05:22:30.559Z,95164.00
2018-08-14T05:25:00.951Z,95158.00
2018-08-14T05:27:31.315Z,95161.00
2018-08-14T05:30:02.063Z,95165.00
2018-08-14T05:32:32.456Z,95166.00
2018-08-14T05:35:03.467Z,95163.00
2018-08-14T05:37:33.700Z,95169.00
2018-08-14T05:40:04.228Z,95172.00
2018-08-14T05:42:34.539Z,95178.00
2018-08-14T05:45:05.756Z,95182.00
2018-08-14T05:47:36.147Z,95188.00
2018-08-14T05:50:07.058Z,95185.00
2018-08-14T05:52:37.140Z,95191.00
2018-08-14T05:55:07.668Z,95197.00
2018-08-14T05:57:37.951Z,95191.00
2018-08-14T06:00:10.831Z,95188.00
2018-08-14T06:02:41.437Z,95187.00
2018-08-14T06:05:11.660Z,95192.00
2018-08-14T06:07:43.072Z,95188.00
2018-08-14T06:10:13.349Z,95190.00
2018-08-14T06:12:44.459Z,95191.00
2018-08-14T06:18:11.132Z,95184.00
2018-08-14T06:20:41.997Z,95186.00
2018-08-14T06:23:12.705Z,95185.00
2018-08-14T06:25:43.191Z,95185.00
2018-08-14T06:28:13.442Z,95192.00
2018-08-14T06:30:43.671Z,95181.00
2018-08-14T06:33:14.132Z,95184.00
2018-08-14T06:35:44.552Z,95188.00
2018-08-14T06:38:14.733Z,95188.00
2018-08-14T06:40:45.094Z,95191.00
2018-08-14T06:43:15.343Z,95187.00
2018-08-14T06:45:49.552Z,95188.00
2018-08-14T06:48:20.293Z,95188.00
2018-08-14T06:50:50.692Z,95179.00
2018-08-14T06:53:20.953Z,95184.00
2018-08-14T06:55:51.207Z,95183.00
2018-08-14T06:58:21.572Z,95189.00
2018-08-14T07:00:51.987Z,95191.00
2018-08-14T07:03:22.191Z,95202.00
2018-08-14T07:05:52.800Z,95196.00
2018-08-14T07:08:23.095Z,95204.00
2018-08-14T07:10:53.484Z,95205.00
2018-08-14T07:13:23.604Z,95206.00
2018-08-14T07:15:53.931Z,95213.00
2018-08-14T07:18:24.224Z,95214.00
2018-08-14T07:20:54.541Z,95211.00
2018-08-14T07:23:24.939Z,95220.00
2018-08-14T07:25:55.170Z,95217.00
2018-08-14T07:28:25.283Z,95222.00
2018-08-14T07:30:55.584Z,95222.00
2018-08-14T07:33:26.737Z,95229.00
2018-08-14T07:36:13.477Z,95221.00
2018-08-14T07:38:43.820Z,95220.00
2018-08-14T07:41:14.140Z,95234.00
2018-08-14T07:43:44.460Z,95227.00
2018-08-14T07:46:15.622Z,95234.00
2018-08-14T07:48:45.983Z,95227.00
2018-08-14T07:51:16.356Z,95227.00
2018-08-14T07:53:46.654Z,95240.00
2018-08-14T07:56:18.016Z,95236.00
2018-08-14T07:58:48.192Z,95232.00
2018-08-14T08:01:18.627Z,95230.00
2018-08-14T08:03:48.912Z,95230.00
2018-08-14T08:06:19.174Z,95234.00
2018-08-14T08:08:49.397Z,95240.00
2018-08-14T08:11:20.090Z,95242.00
2018-08-14T08:13:50.313Z,95242.00
2018-08-14T08:16:20.485Z,95244.00
2018-08-14T08:18:51.581Z,95245.00
2018-08-14T08:21:21.702Z,95243.00
2018-08-14T08:23:51.924Z,95245.00
2018-08-14T08:26:23.058Z,95253.00
2018-08-14T08:28:53.796Z,95257.00
2018-08-14T08:31:24.178Z,95257.00
2018-08-14T08:33:54.747Z,95253.00
2018-08-14T08:36:25.140Z,95252.00
2018-08-14T08:38:55.672Z,95249.00
2018-08-14T08:41:25.927Z,95255.00
2018-08-14T08:43:56.286Z,95254.00
2018-08-14T08:46:26.566Z,95252.00
2018-08-14T08:48:56.914Z,95258.00
2018-08-14T08:51:27.285Z,95249.00
2018-08-14T08:53:57.644Z,95256.00
2018-08-14T08:56:27.882Z,95247.00
2018-08-14T08:58:58.396Z,95254.00
2018-08-14T09:01:28.767Z,95245.00
2018-08-14T09:03:59.076Z,95252.00
2018-08-14T09:06:29.604Z,95260.00
2018-08-14T09:08:59.917Z,95254.00
2018-08-14T09:11:30.240Z,95252.00
2018-08-14T09:14:00.473Z,95256.00
2018-08-14T09:16:30.888Z,95251.00
2018-08-14T09:19:01.634Z,95258.00
2018-08-14T09:21:32.515Z,95260.00
2018-08-14T09:24:02.899Z,95259.00
2018-08-14T09:26:33.364Z,95255.00
2018-08-14T09:29:03.744Z,95258.00
2018-08-14T09:31:34.068Z,95253.00
2018-08-14T09:34:04.722Z,95255.00
2018-08-14T09:36:35.291Z,95259.00
2018-08-14T09:39:09.314Z,95248.00
2018-08-14T09:41:40.035Z,95250.00
2018-08-14T09:44:10.268Z,95250.00
2018-08-14T09:46:40.808Z,95248.00
2018-08-14T09:49:11.141Z,95245.00
2018-08-14T09:51:41.559Z,95246.00
2018-08-14T09:54:11.984Z,95246.00
2018-08-14T09:56:42.730Z,95251.00
2018-08-14T09:59:13.326Z,95239.00
2018-08-14T10:01:48.699Z,95253.00
2018-08-14T10:04:21.881Z,95257.00
2018-08-14T10:06:57.304Z,95271.00
2018-08-14T10:09:32.160Z,95269.00
2018-08-14T10:12:04.311Z,95279.00
2018-08-14T10:14:40.156Z,95288.00
2018-08-14T10:17:13.687Z,95286.00
2018-08-14T10:19:44.431Z,95292.00
2018-08-14T10:22:16.014Z,95296.00
2018-08-14T10:24:46.267Z,95295.00
2018-08-14T10:27:17.552Z,95296.00
2018-08-14T10:29:48.013Z,95300.00
2018-08-14T10:32:18.559Z,95291.00
2018-08-14T10:34:49.128Z,95296.00
2018-08-14T10:37:19.582Z,95291.00
2018-08-14T10:39:50.345Z,95287.00
2018-08-14T10:42:21.471Z,95287.00
2018-08-14T10:44:52.164Z,95287.00
2018-08-14T10:47:23.049Z,95282.00
2018-08-14T10:49:53.224Z,95286.00
2018-08-14T10:52:23.507Z,95281.00
2018-08-14T10:54:53.672Z,95280.00
2018-08-14T10:57:24.081Z,95288.00
2018-08-14T10:59:54.273Z,95278.00
2018-08-14T11:02:24.645Z,95291.00
2018-08-14T11:04:54.919Z,95291.00
2018-08-14T11:07:25.196Z,95296.00
2018-08-14T11:09:55.896Z,95293.00
2018-08-14T11:12:26.303Z,95303.00
2018-08-14T11:14:57.573Z,95307.00
2018-08-14T11:17:29.136Z,95306.00
2018-08-14T11:20:00.888Z,95307.00
2018-08-14T11:22:32.387Z,95311.00
2018-08-14T11:25:02.640Z,95311.00
2018-08-14T11:27:35.037Z,95315.00
2018-08-14T11:30:10.343Z,95317.00
2018-08-14T11:32:40.699Z,95311.00
2018-08-14T11:35:13.136Z,95321.00
2018-08-14T11:37:43.408Z,95315.00
2018-08-14T11:40:14.166Z,95329.00
2018-08-14T11:42:44.609Z,95331.00
2018-08-14T11:45:25.006Z,95327.00
2018-08-14T11:47:55.327Z,95323.00
2018-08-14T11:50:26.943Z,95325.00
2018-08-14T11:52:58.186Z,95329.00
2018-08-14T11:55:29.372Z,95338.00
2018-08-14T11:58:00.627Z,95336.00
2018-08-14T12:00:32.276Z,95334.00
2018-08-14T12:03:03.880Z,95332.00
2018-08-14T12:05:34.564Z,95340.00
2018-08-14T12:08:05.456Z,95340.00
2018-08-14T12:10:35.936Z,95339.00
2018-08-14T12:13:06.319Z,95344.00
2018-08-14T12:15:37.190Z,95348.00
2018-08-14T12:18:08.549Z,95346.00
2018-08-14T12:20:38.847Z,95343.00
2018-08-14T12:23:11.581Z,95343.00
2018-08-14T12:25:41.865Z,95341.00
2018-08-14T12:28:12.176Z,95340.00
2018-08-14T12:30:42.376Z,95343.00
2018-08-14T12:33:12.831Z,95344.00
2018-08-14T12:35:43.050Z,95348.00
2018-08-14T12:38:16.388Z,95353.00
2018-08-14T12:40:46.668Z,95357.00
2018-08-14T12:43:19.287Z,95355.00
2018-08-14T12:45:49.492Z,95358.00
2018-08-14T12:48:19.720Z,95366.00
2018-08-14T12:50:50.043Z,95361.00
2018-08-14T12:53:20.413Z,95364.00
2018-08-14T12:55:51.042Z,95363.00
2018-08-14T12:58:21.292Z,95357.00
2018-08-14T13:00:51.900Z,95353.00
2018-08-14T13:03:22.251Z,95358.00
2018-08-14T13:05:53.226Z,95360.00
2018-08-14T13:08:23.496Z,95360.00
2018-08-14T13:10:53.971Z,95351.00
2018-08-14T13:13:24.346Z,95353.00
2018-08-14T13:15:54.617Z,95347.00
2018-08-14T13:18:24.920Z,95353.00
2018-08-14T13:20:55.216Z,95354.00
2018-08-14T13:23:25.808Z,95354.00
2018-08-14T13:25:56.008Z,95358.00
2018-08-14T13:28:26.408Z,95359.00
2018-08-14T13:30:56.653Z,95362.00
2018-08-14T13:33:27.090Z,95363.00
2018-08-14T13:35:58.985Z,95359.00
2018-08-14T13:38:31.242Z,95363.00
2018-08-14T13:41:05.750Z,95367.00
2018-08-14T13:43:36.484Z,95367.00
2018-08-14T13:46:07.072Z,95368.00
2018-08-14T13:48:37.405Z,95370.00
2018-08-14T13:51:07.774Z,95368.00
2018-08-14T13:53:38.116Z,95370.00
2018-08-14T13:56:08.432Z,95368.00
2018-08-14T13:58:42.444Z,95369.00
2018-08-14T14:01:13.204Z,95372.00
2018-08-14T14:03:43.922Z,95371.00
2018-08-14T14:06:14.088Z,95365.00
2018-08-14T14:08:44.328Z,95372.00
2018-08-14T14:11:15.620Z,95375.00
2018-08-14T14:13:45.824Z,95377.00
2018-08-14T14:16:16.094Z,95377.00
2018-08-14T14:18:46.270Z,95368.00
2018-08-14T14:21:16.704Z,95379.00
2018-08-14T14:23:47.108Z,95390.00
2018-08-14T14:26:17.597Z,95397.00
2018-08-14T14:28:48.479Z,95396.00
2018-08-14T14:31:18.863Z,95399.00
2018-08-14T14:33:49.179Z,95404.00
2018-08-14T14:36:19.566Z,95412.00
2018-08-14T14:38:49.748Z,95414.00
2018-08-14T14:41:20.069Z,95411.00
2018-08-14T14:43:50.489Z,95404.00
2018-08-14T14:46:20.795Z,95403.00
2018-08-14T14:48:51.400Z,95407.00
2018-08-14T14:51:21.861Z,95410.00
2018-08-14T14:53:52.160Z,95411.00
2018-08-14T14:56:22.855Z,95405.00
2018-08-14T14:58:53.133Z,95407.00
2018-08-14T15:01:23.455Z,95406.00
2018-08-14T15:03:53.927Z,95412.00
2018-08-14T15:06:24.114Z,95406.00
2018-08-14T15:08:54.559Z,95404.00
2018-08-14T15:11:25.624Z,95408.00
2018-08-14T15:13:56.190Z,95409.00
2018-08-14T15:16:27.300Z,95410.00
2018-08-14T15:19:08.224Z,95408.00
2018-08-14T15:21:38.528Z,95407.00
2018-08-14T15:24:09.317Z,95411.00
2018-08-14T15:26:40.569Z,95409.00
2018-08-14T15:29:18.182Z,95413.00
2018-08-14T15:31:50.096Z,95415.00
2018-08-14T15:34:23.001Z,95417.00
2018-08-14T15:36:56.515Z,95418.00
2018-08-14T15:39:27.448Z,95413.00
2018-08-14T15:41:59.068Z,95411.00
2018-08-14T15:44:29.802Z,95405.00
2018-08-14T15:47:00.120Z,95404.00
2018-08-14T15:49:30.618Z,95413.00
2018-08-14T15:52:01.194Z,95415.00
2018-08-14T15:54:31.953Z,95407.00
2018-08-14T15:57:02.311Z,95407.00
2018-08-14T15:59:32.896Z,95401.00
2018-08-14T16:02:03.636Z,95405.00
2018-08-14T16:04:34.260Z,95411.00
2018-08-14T16:07:05.772Z,95410.00
2018-08-14T16:09:35.966Z,95404.00
2018-08-14T16:12:06.920Z,95405.00
2018-08-14T16:14:37.353Z,95404.00
2018-08-14T16:17:07.719Z,95407.00
2018-08-14T16:19:37.970Z,95410.00
2018-08-14T16:22:08.176Z,95414.00
2018-08-14T16:24:38.348Z,95419.00
2018-08-14T16:27:11.351Z,95416.00
2018-08-14T16:29:41.772Z,95415.00
2018-08-14T16:32:12.082Z,95416.00
2018-08-14T16:34:42.360Z,95420.00
2018-08-14T16:37:13.399Z,95420.00
2018-08-14T16:39:43.722Z,95420.00
2018-08-14T16:42:14.184Z,95423.00
2018-08-14T16:44:44.485Z,95416.00
2018-08-14T16:47:14.645Z,95412.00
2018-08-14T16:49:44.940Z,95409.00
2018-08-14T16:52:15.303Z,95414.00
2018-08-14T16:54:45.597Z,95414.00
2018-08-14T16:57:15.928Z,95407.00
2018-08-14T16:59:46.221Z,95407.00
2018-08-14T17:02:16.601Z,95406.00
2018-08-14T17:04:46.928Z,95407.00
2018-08-14T17:07:17.450Z,95405.00
2018-08-14T17:09:47.697Z,95405.00
2018-08-14T17:12:18.433Z,95409.00
2018-08-14T17:14:48.978Z,95409.00
2018-08-14T17:17:19.443Z,95412.00
2018-08-14T17:19:47.939Z,95410.00
2018-08-14T17:22:18.276Z,95411.00
2018-08-14T17:24:48.584Z,95414.00
2018-08-14T17:27:18.844Z,95414.00
2018-08-14T17:29:49.104Z,95414.00
2018-08-14T17:32:19.410Z,95418.00
2018-08-14T17:34:50.044Z,95422.00
2018-08-14T17:37:20.289Z,95428.00
2018-08-14T17:39:50.696Z,95432.00
2018-08-14T17:42:21.020Z,95431.00
2018-08-14T17:44:51.224Z,95429.00
2018-08-14T17:47:21.600Z,95435.00
2018-08-14T17:49:52.432Z,95437.00
2018-08-14T17:52:23.171Z,95441.00
2018-08-14T17:54:53.387Z,95444.00
2018-08-14T17:57:29.504Z,95446.00
2018-08-14T18:00:01.280Z,95450.00
2018-08-14T18:02:31.881Z,95448.00
2018-08-14T18:05:02.524Z,95457.00
2018-08-14T18:07:33.064Z,95460.00
2018-08-14T18:10:08.337Z,95462.00
2018-08-14T18:12:39.224Z,95467.00
2018-08-14T18:15:13.724Z,95477.00
2018-08-14T18:17:45.440Z,95482.00
2018-08-14T18:20:17.686Z,95484.00
2018-08-14T18:22:48.744Z,95491.00
2018-08-14T18:25:21.659Z,95496.00
2018-08-14T18:27:53.493Z,95495.00
2018-08-14T18:30:27.169Z,95494.00
2018-08-14T18:32:58.626Z,95488.00
2018-08-14T18:35:32.585Z,95493.00
2018-08-14T18:38:06.746Z,95493.00
2018-08-14T18:40:40.213Z,95508.00
2018-08-14T18:43:12.599Z,95509.00
2018-08-14T18:45:44.980Z,95507.00
2018-08-14T18:48:15.718Z,95520.00
2018-08-14T18:50:46.628Z,95526.00
2018-08-14T18:53:17.251Z,95534.00
2018-08-14T18:55:47.937Z,95535.00
2018-08-14T18:58:18.707Z,95538.00
2018-08-14T19:00:49.230Z,95541.00
2018-08-14T19:03:20.099Z,95540.00
2018-08-14T19:05:51.044Z,95545.00
2018-08-14T19:08:23.937Z,95554.00
2018-08-14T19:10:54.742Z,95554.00
2018-08-14T19:13:25.201Z,95558.00
2018-08-14T19:15:56.806Z,95561.00
2018-08-14T19:18:27.598Z,95564.00
2018-08-14T19:20:58.208Z,95564.00
2018-08-14T19:23:29.138Z,95573.00
2018-08-14T19:25:59.889Z,95573.00
2018-08-14T19:28:30.364Z,95570.00
2018-08-14T19:31:01.090Z,95570.00
2018-08-14T19:33:31.935Z,95572.00
2018-08-14T19:36:02.816Z,95575.00
2018-08-14T19:38:33.396Z,95578.00
2018-08-14T19:41:03.755Z,95581.00
2018-08-14T19:43:34.398Z,95584.00
2018-08-14T19:46:05.195Z,95585.00
2018-08-14T19:48:35.664Z,95586.00
2018-08-14T19:51:07.384Z,95586.00
2018-08-14T19:53:37.776Z,95593.00
2018-08-14T19:56:08.112Z,95594.00
2018-08-14T19:58:38.599Z,95590.00
2018-08-14T20:01:08.912Z,95602.00
2018-08-14T20:03:39.291Z,95604.00
2018-08-14T20:06:09.987Z,95604.00
2018-08-14T20:08:40.736Z,95606.00
2018-08-14T20:11:11.475Z,95607.00
2018-08-14T20:13:41.933Z,95611.00
2018-08-14T20:16:12.239Z,95611.00
2018-08-14T20:18:42.867Z,95622.00
2018-08-14T20:21:14.124Z,95619.00
2018-08-14T20:23:44.789Z,95618.00
2018-08-14T20:26:15.130Z,95623.00
2018-08-14T20:28:45.702Z,95626.00
2018-08-14T20:31:15.902Z,95624.00
2018-08-14T20:33:46.288Z,95627.00
2018-08-14T20:36:16.604Z,95627.00
2018-08-14T20:38:47.070Z,95627.00
2018-08-14T20:41:17.707Z,95627.00
2018-08-14T20:43:48.097Z,95623.00
2018-08-14T20:46:18.268Z,95627.00
2018-08-14T20:48:48.728Z,95622.00
2018-08-14T20:51:19.708Z,95631.00
2018-08-14T20:53:51.030Z,95628.00
2018-08-14T20:56:21.347Z,95623.00
2018-08-14T20:58:52.665Z,95623.00
2018-08-14T21:01:29.421Z,95626.00
2018-08-14T21:03:59.888Z,95625.00
2018-08-14T21:06:30.267Z,95623.00
2018-08-14T21:09:00.591Z,95623.00
2018-08-14T21:11:30.881Z,95624.00
2018-08-14T21:14:01.459Z,95625.00
2018-08-14T21:16:32.015Z,95625.00
2018-08-14T21:19:02.307Z,95630.00
2018-08-14T21:21:32.729Z,95630.00
2018-08-14T21:24:03.044Z,95634.00
2018-08-14T21:26:33.489Z,95632.00
2018-08-14T21:29:03.797Z,95635.00
2018-08-14T21:31:34.543Z,95644.00
2018-08-14T21:34:04.950Z,95649.00
2018-08-14T21:36:35.699Z,95647.00
2018-08-14T21:39:09.603Z,95656.00
2018-08-14T21:41:50.029Z,95651.00
2018-08-14T21:44:20.263Z,95651.00
2018-08-14T21:46:50.508Z,95655.00
2018-08-14T21:49:20.711Z,95655.00
2018-08-14T21:51:51.134Z,95658.00
2018-08-14T21:54:21.579Z,95661.00
2018-08-14T21:56:51.989Z,95660.00
2018-08-14T21:59:22.328Z,95662.00
2018-08-14T22:01:52.633Z,95667.00
2018-08-14T22:04:23.009Z,95660.00
2018-08-14T22:06:53.383Z,95659.00
2018-08-14T22:09:23.796Z,95663.00
2018-08-14T22:11:54.170Z,95667.00
2018-08-14T22:14:24.803Z,95671.00
2018-08-14T22:16:55.105Z,95666.00
2018-08-14T22:19:25.679Z,95665.00
2018-08-14T22:21:55.991Z,95663.00
2018-08-14T22:24:26.439Z,95664.00
2018-08-14T22:26:56.839Z,95671.00
2018-08-14T22:29:27.490Z,95670.00
2018-08-14T22:31:58.104Z,95677.00
2018-08-14T22:34:28.635Z,95676.00
2018-08-14T22:36:59.171Z,95673.00
2018-08-14T22:39:29.544Z,95675.00
2018-08-14T22:42:00.038Z,95675.00
2018-08-14T22:44:31.051Z,95676.00
2018-08-14T22:47:01.528Z,95677.00
2018-08-14T22:49:31.742Z,95675.00
2018-08-14T22:52:03.525Z,95675.00
2018-08-14T22:54:33.914Z,95675.00
2018-08-14T22:57:04.336Z,95679.00
2018-08-14T22:59:34.743Z,95681.00
2018-08-14T23:02:05.759Z,95685.00
2018-08-14T23:04:36.058Z,95685.00
2018-08-14T23:07:06.369Z,95683.00
2018-08-14T23:09:36.651Z,95690.00
2018-08-14T23:12:06.980Z,95687.00
2018-08-14T23:14:37.451Z,95685.00
2018-08-14T23:17:07.771Z,95693.00
2018-08-14T23:19:38.188Z,95693.00
2018-08-14T23:22:08.890Z,95695.00
2018-08-14T23:24:39.301Z,95692.00
2018-08-14T23:27:09.959Z,95693.00
2018-08-14T23:29:40.424Z,95700.00
2018-08-14T23:32:10.698Z,95700.00
2018-08-14T23:34:42.494Z,95701.00
2018-08-14T23:37:12.867Z,95705.00
2018-08-14T23:39:43.313Z,95705.00
2018-08-14T23:42:13.819Z,95709.00
2018-08-14T23:44:44.180Z,95710.00
2018-08-14T23:47:14.542Z,95710.00
2018-08-14T23:49:45.055Z,95710.00
2018-08-14T23:52:15.478Z,95702.00
2018-08-14T23:54:45.851Z,95704.00
2018-08-14T23:57:16.314Z,95702.00
2018-08-14T23:59:47.019Z,95703.00
